createdAt,value
2023-05-23T00:00:02.073Z,292.08
2023-05-23T00:01:02.039Z,292.08
2023-05-23T00:02:02.087Z,292.08
2023-05-23T00:03:02.135Z,291.04
2023-05-23T00:04:03.038Z,289.76
2023-05-23T00:05:02.010Z,293.11
2023-05-23T00:06:01.977Z,293.38
2023-05-23T00:07:01.968Z,292.59
2023-05-23T00:08:01.957Z,293.11
2023-05-23T00:09:01.939Z,292.85
2023-05-23T00:10:03.002Z,290.53
2023-05-23T00:11:01.902Z,292.08
2023-05-23T00:12:01.896Z,291.56
2023-05-23T00:13:01.880Z,291.56
2023-05-23T00:14:01.870Z,292.08
2023-05-23T00:15:02.862Z,294.42
2023-05-23T00:16:01.859Z,292.33
2023-05-23T00:17:01.866Z,292.33
2023-05-23T00:18:01.894Z,292.08
2023-05-23T00:19:01.872Z,292.59
2023-05-23T00:20:02.737Z,291.04
2023-05-23T00:21:01.794Z,293.38
2023-05-23T00:22:01.796Z,293.11
2023-05-23T00:23:01.778Z,292.08
2023-05-23T00:24:01.755Z,293.64
2023-05-23T00:25:01.751Z,294.16
2023-05-23T00:26:02.696Z,292.59
2023-05-23T00:27:01.760Z,293.90
2023-05-23T00:28:01.726Z,294.16
2023-05-23T00:29:01.705Z,294.69
2023-05-23T00:30:01.683Z,293.64
2023-05-23T00:31:01.688Z,294.69
2023-05-23T00:32:02.614Z,295.75
2023-05-23T00:33:01.764Z,295.48
2023-05-23T00:34:01.627Z,294.95
2023-05-23T00:35:01.668Z,294.95
2023-05-23T00:36:01.669Z,295.48
2023-05-23T00:37:01.634Z,295.22
2023-05-23T00:38:02.598Z,295.75
2023-05-23T00:39:01.629Z,296.81
2023-05-23T00:40:01.554Z,295.22
2023-05-23T00:41:01.533Z,296.81
2023-05-23T00:42:01.571Z,296.55
2023-05-23T00:43:01.539Z,296.55
2023-05-23T00:44:02.434Z,296.55
2023-05-23T00:45:01.548Z,298.16
2023-05-23T00:46:01.514Z,296.01
2023-05-23T00:47:01.462Z,296.81
2023-05-23T00:48:01.534Z,297.35
2023-05-23T00:49:01.446Z,296.81
2023-05-23T00:50:02.489Z,298.70
2023-05-23T00:51:01.468Z,295.75
2023-05-23T00:52:01.433Z,296.81
2023-05-23T00:53:01.404Z,300.06
2023-05-23T00:54:01.445Z,296.01
2023-05-23T00:55:02.357Z,299.51
2023-05-23T00:56:01.379Z,297.62
2023-05-23T00:57:01.380Z,300.88
2023-05-23T00:58:01.363Z,300.33
2023-05-23T00:59:01.312Z,299.24
2023-05-23T01:00:01.350Z,298.97
2023-05-23T01:01:02.222Z,302.26
2023-05-23T01:02:01.352Z,299.79
2023-05-23T01:03:01.495Z,301.98
2023-05-23T01:04:01.314Z,301.43
2023-05-23T01:05:01.240Z,301.71
2023-05-23T01:06:01.251Z,300.33
2023-05-23T01:07:02.155Z,299.79
2023-05-23T01:08:01.248Z,300.06
2023-05-23T01:09:01.198Z,301.98
2023-05-23T01:10:01.203Z,303.10
2023-05-23T01:11:01.195Z,303.38
2023-05-23T01:12:01.201Z,301.16
2023-05-23T01:13:02.104Z,304.50
2023-05-23T01:14:01.178Z,302.54
2023-05-23T01:15:01.160Z,305.34
2023-05-23T01:16:02.903Z,304.22
2023-05-23T01:17:01.093Z,304.50
2023-05-23T01:18:01.123Z,303.93
2023-05-23T01:19:02.057Z,304.78
2023-05-23T01:20:01.091Z,302.82
2023-05-23T01:21:01.083Z,303.93
2023-05-23T01:22:01.016Z,304.78
2023-05-23T01:23:01.123Z,303.93
2023-05-23T01:24:02.023Z,304.50
2023-05-23T01:25:02.008Z,305.63
2023-05-23T01:26:01.078Z,304.78
2023-05-23T01:27:00.960Z,305.34
2023-05-23T01:28:00.959Z,303.93
2023-05-23T01:29:01.066Z,307.05
2023-05-23T01:30:00.941Z,305.06
2023-05-23T01:31:01.868Z,306.20
2023-05-23T01:32:00.931Z,305.91
2023-05-23T01:33:00.980Z,307.34
2023-05-23T01:34:00.916Z,306.20
2023-05-23T01:35:00.833Z,307.63
2023-05-23T01:36:00.875Z,306.20
2023-05-23T01:37:01.763Z,305.34
2023-05-23T01:38:00.856Z,306.77
2023-05-23T01:39:00.823Z,307.05
2023-05-23T01:40:00.811Z,306.20
2023-05-23T01:41:00.808Z,305.06
2023-05-23T01:42:00.764Z,307.05
2023-05-23T01:43:01.699Z,305.06
2023-05-23T01:44:00.766Z,304.50
2023-05-23T01:45:00.737Z,305.91
2023-05-23T01:46:00.793Z,306.20
2023-05-23T01:47:00.708Z,306.20
2023-05-23T01:48:01.662Z,305.63
2023-05-23T01:49:00.724Z,303.93
2023-05-23T01:50:00.670Z,306.77
2023-05-23T01:51:00.681Z,305.06
2023-05-23T01:52:00.699Z,307.34
2023-05-23T01:53:01.607Z,307.34
2023-05-23T01:54:00.634Z,307.34
2023-05-23T01:55:00.646Z,307.63
2023-05-23T01:56:00.631Z,305.63
2023-05-23T01:57:00.682Z,306.20
2023-05-23T01:58:00.582Z,306.77
2023-05-23T01:59:01.481Z,305.06
2023-05-23T02:00:00.767Z,303.93
2023-05-23T02:01:01.351Z,305.63
2023-05-23T02:02:00.610Z,305.06
2023-05-23T02:03:01.373Z,305.91
2023-05-23T02:04:00.506Z,307.91
2023-05-23T02:05:01.774Z,306.20
2023-05-23T02:06:00.548Z,307.05
2023-05-23T02:07:00.508Z,304.78
2023-05-23T02:08:00.492Z,305.91
2023-05-23T02:09:01.160Z,305.34
2023-05-23T02:10:01.442Z,307.91
2023-05-23T02:11:00.538Z,305.34
2023-05-23T02:12:00.529Z,305.34
2023-05-23T02:13:00.486Z,305.91
2023-05-23T02:14:00.520Z,305.63
2023-05-23T02:15:01.315Z,305.63
2023-05-23T02:16:00.404Z,305.63
2023-05-23T02:17:00.418Z,304.50
2023-05-23T02:18:00.478Z,306.20
2023-05-23T02:19:00.349Z,303.38
2023-05-23T02:20:00.579Z,304.50
2023-05-23T02:21:01.254Z,305.34
2023-05-23T02:22:00.248Z,305.63
2023-05-23T02:23:00.331Z,305.63
2023-05-23T02:24:00.332Z,304.50
2023-05-23T02:25:00.229Z,303.38
2023-05-23T02:26:00.249Z,304.22
2023-05-23T02:27:01.180Z,305.06
2023-05-23T02:28:00.335Z,303.93
2023-05-23T02:29:00.195Z,306.20
2023-05-23T02:30:00.255Z,304.22
2023-05-23T02:31:00.273Z,306.77
2023-05-23T02:32:01.132Z,305.34
2023-05-23T02:33:00.174Z,305.06
2023-05-23T02:34:00.200Z,305.34
2023-05-23T02:35:00.099Z,305.06
2023-05-23T02:36:00.152Z,305.34
2023-05-23T02:37:00.117Z,305.63
2023-05-23T02:38:01.118Z,305.34
2023-05-23T02:39:00.094Z,306.48
2023-05-23T02:40:00.239Z,306.20
2023-05-23T02:41:00.033Z,306.20
2023-05-23T02:42:00.005Z,306.48
2023-05-23T02:43:00.029Z,305.34
2023-05-23T02:44:01.000Z,305.06
2023-05-23T02:45:00.008Z,306.20
2023-05-23T02:46:00.034Z,304.50
2023-05-23T02:46:59.934Z,305.63
2023-05-23T02:48:00.085Z,307.91
2023-05-23T02:49:57.438Z,448.31
2023-05-23T02:50:57.404Z,392.11
2023-05-23T02:51:57.400Z,367.33
2023-05-23T02:52:57.416Z,352.01
2023-05-23T02:53:57.399Z,340.37
2023-05-23T02:54:58.316Z,334.16
2023-05-23T02:55:57.371Z,328.16
2023-05-23T02:56:57.359Z,325.25
2023-05-23T02:57:57.331Z,321.12
2023-05-23T02:58:57.302Z,318.95
2023-05-23T02:59:57.299Z,318.02
2023-05-23T03:00:58.246Z,314.98
2023-05-23T03:01:57.391Z,313.78
2023-05-23T03:02:57.403Z,314.08
2023-05-23T03:03:57.390Z,312.59
2023-05-23T03:04:57.248Z,313.78
2023-05-23T03:05:58.212Z,311.11
2023-05-23T03:06:57.255Z,308.78
2023-05-23T03:07:57.197Z,308.20
2023-05-23T03:08:57.207Z,308.78
2023-05-23T03:09:57.200Z,308.78
2023-05-23T03:10:58.106Z,309.07
2023-05-23T03:11:57.183Z,306.48
2023-05-23T03:12:57.144Z,308.49
2023-05-23T03:13:57.243Z,309.07
2023-05-23T03:14:57.106Z,308.78
2023-05-23T03:15:58.119Z,305.63
2023-05-23T03:16:57.159Z,306.77
2023-05-23T03:17:57.161Z,307.05
2023-05-23T03:18:57.119Z,306.20
2023-05-23T03:19:57.061Z,307.91
2023-05-23T03:20:57.072Z,306.20
2023-05-23T03:21:57.045Z,306.77
2023-05-23T03:22:57.071Z,305.06
2023-05-23T03:23:57.063Z,304.78
2023-05-23T03:24:57.037Z,303.93
2023-05-23T03:25:57.977Z,304.22
2023-05-23T03:26:56.990Z,305.63
2023-05-23T03:27:56.972Z,305.63
2023-05-23T03:28:56.996Z,304.78
2023-05-23T03:29:56.946Z,304.50
2023-05-23T03:30:57.887Z,305.91
2023-05-23T03:31:56.960Z,303.93
2023-05-23T03:32:56.979Z,304.78
2023-05-23T03:33:56.882Z,304.50
2023-05-23T03:34:56.905Z,305.63
2023-05-23T03:35:56.869Z,304.78
2023-05-23T03:36:57.810Z,305.63
2023-05-23T03:37:56.865Z,304.22
2023-05-23T03:38:56.843Z,305.63
2023-05-23T03:39:56.822Z,305.63
2023-05-23T03:40:56.857Z,304.50
2023-05-23T03:41:56.785Z,305.34
2023-05-23T03:42:57.726Z,305.06
2023-05-23T03:43:56.769Z,305.63
2023-05-23T03:44:56.761Z,303.65
2023-05-23T03:45:56.753Z,305.63
2023-05-23T03:46:56.715Z,305.06
2023-05-23T03:47:56.796Z,305.06
2023-05-23T03:48:57.670Z,306.48
2023-05-23T03:49:56.791Z,305.06
2023-05-23T03:50:56.646Z,306.20
2023-05-23T03:51:56.856Z,303.93
2023-05-23T03:52:56.676Z,303.93
2023-05-23T03:53:57.612Z,304.50
2023-05-23T03:54:56.643Z,305.06
2023-05-23T03:55:56.592Z,306.77
2023-05-23T03:56:56.637Z,305.63
2023-05-23T03:57:56.586Z,305.06
2023-05-23T03:58:56.596Z,305.63
2023-05-23T03:59:57.553Z,305.06
2023-05-23T04:00:56.580Z,303.93
2023-05-23T04:01:56.565Z,306.48
2023-05-23T04:02:56.602Z,304.78
2023-05-23T04:03:56.610Z,304.50
2023-05-23T04:04:56.576Z,305.63
2023-05-23T04:05:57.429Z,307.34
2023-05-23T04:06:56.456Z,305.06
2023-05-23T04:07:56.517Z,305.63
2023-05-23T04:08:56.482Z,307.05
2023-05-23T04:09:56.489Z,305.06
2023-05-23T04:10:56.431Z,305.34
2023-05-23T04:11:57.324Z,304.50
2023-05-23T04:12:56.392Z,305.34
2023-05-23T04:13:56.377Z,305.06
2023-05-23T04:14:56.393Z,306.20
2023-05-23T04:15:56.576Z,304.78
2023-05-23T04:16:57.300Z,307.34
2023-05-23T04:17:56.467Z,304.22
2023-05-23T04:18:56.402Z,303.10
2023-05-23T04:19:56.297Z,305.34
2023-05-23T04:20:56.332Z,303.93
2023-05-23T04:21:57.207Z,303.93
2023-05-23T04:22:56.382Z,305.63
2023-05-23T04:23:56.291Z,304.22
2023-05-23T04:24:56.214Z,304.50
2023-05-23T04:25:56.265Z,305.34
2023-05-23T04:26:56.253Z,304.78
2023-05-23T04:27:57.132Z,306.48
2023-05-23T04:28:56.225Z,306.20
2023-05-23T04:29:56.176Z,304.78
2023-05-23T04:30:56.211Z,304.78
2023-05-23T04:31:56.116Z,305.63
2023-05-23T04:32:56.189Z,306.20
2023-05-23T04:33:57.078Z,305.91
2023-05-23T04:34:56.214Z,304.22
2023-05-23T04:35:56.102Z,303.93
2023-05-23T04:36:56.133Z,303.93
2023-05-23T04:37:56.227Z,303.65
2023-05-23T04:38:57.033Z,302.82
2023-05-23T04:39:56.079Z,304.78
2023-05-23T04:40:56.159Z,304.78
2023-05-23T04:41:56.093Z,303.38
2023-05-23T04:42:56.077Z,302.82
2023-05-23T04:43:57.047Z,304.50
2023-05-23T04:44:56.026Z,304.50
2023-05-23T04:45:56.078Z,304.50
2023-05-23T04:46:56.155Z,306.77
2023-05-23T04:47:56.132Z,303.65
2023-05-23T04:48:56.928Z,305.06
2023-05-23T04:49:56.075Z,305.63
2023-05-23T04:50:55.915Z,303.38
2023-05-23T04:51:56.034Z,304.78
2023-05-23T04:52:56.338Z,305.63
2023-05-23T04:53:59.426Z,305.91
2023-05-23T04:54:56.808Z,305.63
2023-05-23T04:55:55.818Z,306.20
2023-05-23T04:56:55.848Z,303.93
2023-05-23T04:57:55.824Z,303.38
2023-05-23T04:58:55.864Z,301.71
2023-05-23T04:59:55.805Z,303.38
2023-05-23T05:00:56.746Z,304.22
2023-05-23T05:01:55.789Z,304.22
2023-05-23T05:02:55.837Z,304.50
2023-05-23T05:03:55.827Z,304.78
2023-05-23T05:04:55.708Z,305.06
2023-05-23T05:05:55.729Z,304.50
2023-05-23T05:06:56.664Z,303.65
2023-05-23T05:07:55.724Z,306.20
2023-05-23T05:08:55.674Z,306.48
2023-05-23T05:09:56.124Z,307.05
2023-05-23T05:10:55.710Z,305.63
2023-05-23T05:11:56.594Z,305.34
2023-05-23T05:12:58.443Z,305.91
2023-05-23T05:13:55.614Z,307.63
2023-05-23T05:14:55.612Z,306.20
2023-05-23T05:15:55.625Z,306.20
2023-05-23T05:16:55.685Z,306.48
2023-05-23T05:17:56.575Z,307.05
2023-05-23T05:18:55.580Z,306.77
2023-05-23T05:19:55.595Z,307.91
2023-05-23T05:20:55.578Z,309.07
2023-05-23T05:21:55.581Z,309.36
2023-05-23T05:22:56.442Z,307.91
2023-05-23T05:23:55.571Z,307.91
2023-05-23T05:24:55.482Z,307.91
2023-05-23T05:25:55.431Z,307.34
2023-05-23T05:26:55.455Z,309.07
2023-05-23T05:27:56.402Z,307.91
2023-05-23T05:28:55.470Z,308.49
2023-05-23T05:29:55.407Z,307.91
2023-05-23T05:30:55.568Z,310.53
2023-05-23T05:31:55.473Z,308.78
2023-05-23T05:32:55.448Z,309.36
2023-05-23T05:33:56.365Z,307.05
2023-05-23T05:34:55.329Z,307.91
2023-05-23T05:35:55.344Z,309.36
2023-05-23T05:36:55.377Z,307.63
2023-05-23T05:37:55.384Z,309.65
2023-05-23T05:38:56.210Z,309.94
2023-05-23T05:39:55.310Z,309.07
2023-05-23T05:40:55.293Z,308.78
2023-05-23T05:41:55.272Z,309.36
2023-05-23T05:42:55.266Z,310.23
2023-05-23T05:43:56.296Z,311.11
2023-05-23T05:44:55.253Z,312.59
2023-05-23T05:45:55.223Z,313.48
2023-05-23T05:46:55.228Z,314.98
2023-05-23T05:47:55.278Z,315.58
2023-05-23T05:48:55.211Z,316.19
2023-05-23T05:49:56.174Z,317.10
2023-05-23T05:50:55.161Z,318.33
2023-05-23T05:51:55.139Z,317.72
2023-05-23T05:52:55.213Z,318.95
2023-05-23T05:53:55.236Z,319.57
2023-05-23T05:54:56.081Z,318.95
2023-05-23T05:55:55.112Z,318.64
2023-05-23T05:56:55.090Z,318.64
2023-05-23T05:57:55.048Z,318.95
2023-05-23T05:58:55.310Z,318.02
2023-05-23T05:59:55.060Z,318.02
2023-05-23T06:00:55.945Z,317.10
2023-05-23T06:01:55.038Z,316.80
2023-05-23T06:02:55.223Z,315.28
2023-05-23T06:03:55.228Z,314.68
2023-05-23T06:04:55.084Z,313.48
2023-05-23T06:05:54.936Z,313.78
2023-05-23T06:06:55.910Z,316.19
2023-05-23T06:07:54.958Z,314.68
2023-05-23T06:08:54.941Z,315.28
2023-05-23T06:09:54.990Z,314.08
2023-05-23T06:10:54.894Z,313.48
2023-05-23T06:11:55.868Z,313.18
2023-05-23T06:12:54.960Z,312.00
2023-05-23T06:13:54.956Z,312.29
2023-05-23T06:14:54.845Z,313.48
2023-05-23T06:15:54.878Z,314.38
2023-05-23T06:16:54.899Z,309.65
2023-05-23T06:17:55.773Z,311.11
2023-05-23T06:18:54.847Z,310.23
2023-05-23T06:19:54.846Z,310.23
2023-05-23T06:20:54.841Z,310.82
2023-05-23T06:21:54.754Z,310.82
2023-05-23T06:22:54.841Z,310.23
2023-05-23T06:23:55.690Z,308.78
2023-05-23T06:24:54.812Z,310.53
2023-05-23T06:25:54.735Z,309.07
2023-05-23T06:26:54.695Z,309.07
2023-05-23T06:27:54.719Z,307.63
2023-05-23T06:28:54.648Z,308.20
2023-05-23T06:29:55.658Z,306.48
2023-05-23T06:30:54.633Z,307.34
2023-05-23T06:31:54.670Z,306.20
2023-05-23T06:32:54.647Z,306.20
2023-05-23T06:33:54.654Z,304.22
2023-05-23T06:34:54.612Z,304.22
2023-05-23T06:35:55.536Z,304.78
2023-05-23T06:36:54.559Z,303.93
2023-05-23T06:37:54.567Z,305.34
2023-05-23T06:38:54.629Z,301.98
2023-05-23T06:39:54.536Z,303.65
2023-05-23T06:40:55.466Z,301.16
2023-05-23T06:41:54.505Z,301.71
2023-05-23T06:42:54.504Z,302.82
2023-05-23T06:43:54.498Z,300.06
2023-05-23T06:44:54.459Z,298.16
2023-05-23T06:45:55.535Z,300.61
2023-05-23T06:46:54.420Z,298.43
2023-05-23T06:47:54.472Z,297.35
2023-05-23T06:49:06.612Z,297.62
2023-05-23T06:49:55.900Z,298.16
2023-05-23T06:50:55.420Z,298.16
2023-05-23T06:51:54.571Z,296.81
2023-05-23T06:52:54.377Z,297.35
2023-05-23T06:53:54.370Z,298.97
2023-05-23T06:54:54.367Z,299.79
2023-05-23T06:55:55.305Z,299.51
2023-05-23T06:56:54.321Z,297.62
2023-05-23T06:57:54.349Z,300.06
2023-05-23T06:58:54.316Z,298.97
2023-05-23T06:59:54.330Z,300.06
2023-05-23T07:00:54.267Z,299.24
2023-05-23T07:01:55.221Z,300.61
2023-05-23T07:02:54.280Z,299.51
2023-05-23T07:03:54.233Z,299.24
2023-05-23T07:04:54.260Z,300.06
2023-05-23T07:05:54.267Z,300.06
2023-05-23T07:06:55.126Z,301.16
2023-05-23T07:07:54.148Z,301.43
2023-05-23T07:08:54.220Z,302.82
2023-05-23T07:09:54.195Z,302.82
2023-05-23T07:10:54.173Z,301.16
2023-05-23T07:11:54.164Z,303.93
2023-05-23T07:12:55.036Z,301.43
2023-05-23T07:13:54.127Z,301.16
2023-05-23T07:14:54.074Z,301.43
2023-05-23T07:15:54.065Z,301.98
2023-05-23T07:16:54.113Z,301.71
2023-05-23T07:17:55.040Z,301.71
2023-05-23T07:18:54.040Z,300.06
2023-05-23T07:19:54.028Z,301.98
2023-05-23T07:20:54.005Z,300.61
2023-05-23T07:21:54.061Z,301.16
2023-05-23T07:22:54.994Z,301.16
2023-05-23T07:23:53.990Z,301.43
2023-05-23T07:24:54.071Z,300.06
2023-05-23T07:26:02.651Z,298.97
2023-05-23T07:26:55.448Z,300.06
2023-05-23T07:27:53.906Z,298.70
2023-05-23T07:28:54.866Z,298.97
2023-05-23T07:29:53.903Z,301.16
2023-05-23T07:30:53.950Z,297.89
2023-05-23T07:31:53.876Z,297.35
2023-05-23T07:32:53.999Z,297.08
2023-05-23T07:33:56.499Z,297.35
2023-05-23T07:34:53.835Z,298.70
2023-05-23T07:35:53.875Z,295.48
2023-05-23T07:36:53.911Z,299.79
2023-05-23T07:37:54.076Z,296.55
2023-05-23T07:38:53.769Z,297.89
2023-05-23T07:39:54.850Z,298.43
2023-05-23T07:41:06.838Z,297.35
2023-05-23T07:41:55.243Z,296.81
2023-05-23T07:42:54.391Z,297.62
2023-05-23T07:43:53.748Z,298.97
2023-05-23T07:44:53.705Z,296.81
2023-05-23T07:45:54.621Z,298.97
2023-05-23T07:46:53.801Z,298.97
2023-05-23T07:47:53.736Z,301.16
2023-05-23T07:48:53.648Z,297.89
2023-05-23T07:49:53.697Z,301.16
2023-05-23T07:50:54.564Z,297.62
2023-05-23T07:51:53.604Z,300.61
2023-05-23T07:52:53.623Z,297.62
2023-05-23T07:53:53.596Z,297.35
2023-05-23T07:54:53.619Z,300.06
2023-05-23T07:55:53.567Z,299.79
2023-05-23T07:56:54.543Z,299.51
2023-05-23T07:57:53.541Z,298.43
2023-05-23T07:58:53.550Z,298.70
2023-05-23T07:59:53.511Z,297.62
2023-05-23T08:00:53.513Z,298.16
2023-05-23T08:01:54.485Z,296.28
2023-05-23T08:02:53.571Z,296.81
2023-05-23T08:03:53.475Z,297.08
2023-05-23T08:04:53.538Z,296.55
2023-05-23T08:05:53.410Z,295.22
2023-05-23T08:07:05.086Z,293.64
2023-05-23T08:07:55.878Z,295.48
2023-05-23T08:08:53.655Z,294.16
2023-05-23T08:09:53.708Z,295.48
2023-05-23T08:10:54.452Z,294.95
2023-05-23T08:11:53.361Z,293.90
2023-05-23T08:12:54.278Z,292.59
2023-05-23T08:13:53.347Z,293.11
2023-05-23T08:14:53.677Z,291.04
2023-05-23T08:15:53.313Z,289.51
2023-05-23T08:16:53.395Z,287.99
2023-05-23T08:17:53.378Z,287.49
2023-05-23T08:18:54.229Z,286.73
2023-05-23T08:19:53.265Z,285.49
2023-05-23T08:20:53.275Z,284.26
2023-05-23T08:21:53.233Z,284.02
2023-05-23T08:22:53.242Z,283.04
2023-05-23T08:23:53.253Z,283.04
2023-05-23T08:24:54.152Z,282.80
2023-05-23T08:25:53.223Z,279.67
2023-05-23T08:26:53.193Z,281.35
2023-05-23T08:27:53.199Z,280.15
2023-05-23T08:28:53.162Z,278.49
2023-05-23T08:29:53.141Z,277.55
2023-05-23T08:30:54.107Z,279.20
2023-05-23T08:31:53.250Z,280.15
2023-05-23T08:32:53.207Z,278.73
2023-05-23T08:33:53.202Z,278.49
2023-05-23T08:34:53.141Z,278.26
2023-05-23T08:35:53.067Z,276.39
2023-05-23T08:36:54.003Z,276.16
2023-05-23T08:37:53.126Z,272.50
2023-05-23T08:38:53.077Z,271.60
2023-05-23T08:39:53.085Z,271.15
2023-05-23T08:40:53.019Z,269.82
2023-05-23T08:41:53.939Z,267.63
2023-05-23T08:42:52.996Z,268.06
2023-05-23T08:43:53.033Z,266.98
2023-05-23T08:44:53.060Z,267.20
2023-05-23T08:45:53.095Z,265.26
2023-05-23T08:46:53.868Z,266.33
2023-05-23T08:47:53.030Z,267.41
2023-05-23T08:49:50.454Z,388.92
2023-05-23T08:50:50.422Z,342.50
2023-05-23T08:51:51.374Z,322.38
2023-05-23T08:52:50.453Z,310.23
2023-05-23T08:53:52.904Z,301.98
2023-05-23T08:54:50.385Z,296.55
2023-05-23T08:55:50.429Z,292.59
2023-05-23T08:56:51.261Z,286.98
2023-05-23T08:57:50.336Z,287.23
2023-05-23T08:58:50.353Z,285.00
2023-05-23T08:59:50.310Z,283.53
2023-05-23T09:00:50.325Z,280.39
2023-05-23T09:01:50.503Z,281.11
2023-05-23T09:02:51.208Z,277.79
2023-05-23T09:03:50.308Z,276.39
2023-05-23T09:04:50.279Z,275.69
2023-05-23T09:05:50.339Z,273.18
2023-05-23T09:06:50.253Z,272.73
2023-05-23T09:07:51.219Z,271.38
2023-05-23T09:08:50.254Z,270.49
2023-05-23T09:09:50.166Z,269.38
2023-05-23T09:10:50.221Z,268.28
2023-05-23T09:11:50.119Z,267.85
2023-05-23T09:12:50.149Z,267.20
2023-05-23T09:13:51.118Z,268.06
2023-05-23T09:14:50.111Z,264.83
2023-05-23T09:15:50.189Z,264.83
2023-05-23T09:16:50.084Z,265.47
2023-05-23T09:17:50.128Z,266.33
2023-05-23T09:18:51.032Z,265.69
2023-05-23T09:19:50.086Z,265.26
2023-05-23T09:20:50.043Z,265.47
2023-05-23T09:21:50.007Z,265.69
2023-05-23T09:22:50.053Z,267.63
2023-05-23T09:23:50.946Z,263.98
2023-05-23T09:24:49.996Z,265.26
2023-05-23T09:25:49.934Z,270.26
2023-05-23T09:26:49.986Z,266.33
2023-05-23T09:27:49.947Z,272.27
2023-05-23T09:28:50.892Z,267.63
2023-05-23T09:29:49.922Z,269.16
2023-05-23T09:30:49.917Z,267.41
2023-05-23T09:31:49.949Z,270.93
2023-05-23T09:32:49.899Z,271.83
2023-05-23T09:33:56.170Z,272.27
2023-05-23T09:34:49.821Z,272.50
2023-05-23T09:35:49.821Z,273.86
2023-05-23T09:36:49.843Z,274.55
2023-05-23T09:37:49.812Z,274.55
2023-05-23T09:38:56.808Z,273.63
2023-05-23T09:39:49.852Z,275.23
2023-05-23T09:40:49.842Z,275.46
2023-05-23T09:41:49.774Z,276.39
2023-05-23T09:42:49.928Z,274.55
2023-05-23T09:43:50.717Z,275.46
2023-05-23T09:44:49.731Z,275.23
2023-05-23T09:45:49.838Z,275.23
2023-05-23T09:46:49.914Z,275.46
2023-05-23T09:47:49.681Z,274.77
2023-05-23T09:48:49.665Z,275.69
2023-05-23T09:49:50.617Z,275.46
2023-05-23T09:50:49.711Z,275.46
2023-05-23T09:51:49.723Z,274.77
2023-05-23T09:52:49.654Z,274.09
2023-05-23T09:53:49.600Z,274.32
2023-05-23T09:54:50.609Z,274.32
2023-05-23T09:55:49.597Z,273.63
2023-05-23T09:56:49.684Z,271.38
2023-05-23T09:57:49.536Z,275.69
2023-05-23T09:58:49.543Z,274.09
2023-05-23T09:59:50.524Z,274.55
2023-05-23T10:00:49.562Z,271.15
2023-05-23T10:01:49.537Z,272.73
2023-05-23T10:02:49.513Z,269.16
2023-05-23T10:03:49.524Z,267.85
2023-05-23T10:04:49.564Z,273.18
2023-05-23T10:05:50.436Z,268.06
2023-05-23T10:06:49.470Z,267.41
2023-05-23T10:07:49.406Z,265.90
2023-05-23T10:08:49.389Z,266.98
2023-05-23T10:09:49.435Z,266.76
2023-05-23T10:10:50.348Z,266.98
2023-05-23T10:11:49.356Z,267.85
2023-05-23T10:12:49.467Z,267.41
2023-05-23T10:13:49.457Z,268.72
2023-05-23T10:14:49.404Z,267.63
2023-05-23T10:15:50.281Z,267.63
2023-05-23T10:16:49.350Z,267.85
2023-05-23T10:17:49.365Z,269.60
2023-05-23T10:18:49.304Z,269.38
2023-05-23T10:19:49.305Z,269.16
2023-05-23T10:20:49.301Z,270.04
2023-05-23T10:21:50.215Z,270.93
2023-05-23T10:22:49.363Z,269.60
2023-05-23T10:23:49.241Z,269.16
2023-05-23T10:24:49.189Z,269.60
2023-05-23T10:25:49.403Z,271.38
2023-05-23T10:26:50.149Z,272.27
2023-05-23T10:27:49.248Z,271.38
2023-05-23T10:28:49.189Z,273.18
2023-05-23T10:29:49.178Z,273.18
2023-05-23T10:30:49.133Z,271.83
2023-05-23T10:31:49.106Z,272.50
2023-05-23T10:32:50.280Z,273.86
2023-05-23T10:33:49.151Z,273.63
2023-05-23T10:34:49.060Z,275.00
2023-05-23T10:35:49.097Z,277.09
2023-05-23T10:36:49.026Z,276.85
2023-05-23T10:37:49.074Z,276.85
2023-05-23T10:38:51.555Z,278.96
2023-05-23T10:39:48.996Z,278.26
2023-05-23T10:40:48.998Z,278.96
2023-05-23T10:41:49.079Z,280.39
2023-05-23T10:42:48.981Z,282.07
2023-05-23T10:43:48.988Z,283.04
2023-05-23T10:44:55.172Z,282.55
2023-05-23T10:45:48.916Z,282.55
2023-05-23T10:46:49.019Z,283.28
2023-05-23T10:47:49.101Z,285.24
2023-05-23T10:48:48.873Z,283.77
2023-05-23T10:49:48.885Z,284.51
2023-05-23T10:50:49.865Z,284.51
2023-05-23T10:51:50.876Z,283.28
2023-05-23T10:52:48.849Z,284.51
2023-05-23T10:53:48.853Z,284.75
2023-05-23T10:54:48.796Z,284.51
2023-05-23T10:55:49.745Z,285.99
2023-05-23T10:56:48.858Z,285.49
2023-05-23T10:57:50.477Z,285.49
2023-05-23T10:58:48.743Z,285.99
2023-05-23T10:59:48.790Z,286.73
2023-05-23T11:00:48.761Z,287.23
2023-05-23T11:01:49.704Z,287.99
2023-05-23T11:02:48.723Z,286.98
2023-05-23T11:03:50.582Z,286.73
2023-05-23T11:04:48.798Z,287.99
2023-05-23T11:05:48.703Z,287.99
2023-05-23T11:06:49.560Z,286.98
2023-05-23T11:07:48.618Z,287.49
2023-05-23T11:08:49.231Z,286.73
2023-05-23T11:09:48.618Z,287.74
2023-05-23T11:10:48.671Z,287.49
2023-05-23T11:11:48.634Z,287.49
2023-05-23T11:12:49.519Z,287.49
2023-05-23T11:13:48.692Z,287.99
2023-05-23T11:14:48.531Z,288.24
2023-05-23T11:15:48.561Z,287.74
2023-05-23T11:16:48.737Z,289.00
2023-05-23T11:17:48.525Z,288.24
2023-05-23T11:18:49.470Z,288.75
2023-05-23T11:19:48.546Z,287.99
2023-05-23T11:20:48.489Z,288.49
2023-05-23T11:21:48.578Z,288.75
2023-05-23T11:22:48.424Z,286.98
2023-05-23T11:23:49.402Z,290.02
2023-05-23T11:24:48.428Z,290.79
2023-05-23T11:25:48.434Z,292.59
2023-05-23T11:26:48.431Z,293.11
2023-05-23T11:27:48.353Z,293.11
2023-05-23T11:28:49.374Z,293.90
2023-05-23T11:29:48.473Z,294.95
2023-05-23T11:30:48.349Z,296.01
2023-05-23T11:31:48.368Z,296.28
2023-05-23T11:32:48.415Z,297.62
2023-05-23T11:33:49.281Z,299.24
2023-05-23T11:34:48.333Z,297.35
2023-05-23T11:35:48.371Z,301.16
2023-05-23T11:36:48.281Z,300.06
2023-05-23T11:37:48.344Z,301.71
2023-05-23T11:38:49.191Z,301.16
2023-05-23T11:39:48.308Z,301.71
2023-05-23T11:40:48.241Z,304.22
2023-05-23T11:41:48.202Z,303.65
2023-05-23T11:42:48.239Z,305.34
2023-05-23T11:43:48.368Z,303.65
2023-05-23T11:44:49.081Z,306.20
2023-05-23T11:45:48.244Z,304.78
2023-05-23T11:46:48.171Z,304.78
2023-05-23T11:47:48.175Z,306.77
2023-05-23T11:48:48.177Z,305.91
2023-05-23T11:49:49.055Z,307.91
2023-05-23T11:50:48.162Z,307.34
2023-05-23T11:51:48.079Z,307.63
2023-05-23T11:52:48.081Z,308.49
2023-05-23T11:53:48.218Z,308.49
2023-05-23T11:54:48.986Z,308.49
2023-05-23T11:55:48.034Z,307.91
2023-05-23T11:56:48.014Z,306.20
2023-05-23T11:57:47.989Z,308.78
2023-05-23T11:58:48.083Z,304.78
2023-05-23T11:59:48.011Z,305.06
2023-05-23T12:00:48.924Z,307.05
2023-05-23T12:01:47.972Z,307.34
2023-05-23T12:02:48.067Z,307.91
2023-05-23T12:03:48.316Z,307.05
2023-05-23T12:04:48.039Z,307.63
2023-05-23T12:05:48.827Z,307.34
2023-05-23T12:06:47.887Z,306.48
2023-05-23T12:07:48.011Z,306.20
2023-05-23T12:08:47.828Z,305.63
2023-05-23T12:09:47.873Z,305.63
2023-05-23T12:10:48.875Z,307.05
2023-05-23T12:11:47.864Z,307.05
2023-05-23T12:12:47.885Z,305.63
2023-05-23T12:13:48.037Z,304.78
2023-05-23T12:14:47.795Z,304.50
2023-05-23T12:15:49.791Z,303.38
2023-05-23T12:16:47.912Z,305.34
2023-05-23T12:17:47.849Z,303.65
2023-05-23T12:18:47.930Z,301.98
2023-05-23T12:19:47.711Z,303.93
2023-05-23T12:20:47.732Z,302.26
2023-05-23T12:21:48.602Z,302.54
2023-05-23T12:22:47.684Z,302.82
2023-05-23T12:23:47.930Z,302.26
2023-05-23T12:24:47.661Z,301.71
2023-05-23T12:25:48.001Z,305.63
2023-05-23T12:26:47.616Z,302.54
2023-05-23T12:27:48.541Z,303.38
2023-05-23T12:28:47.598Z,304.22
2023-05-23T12:29:47.591Z,301.43